createdAt,value
2019-04-29T00:00:55.203Z,9.10
2019-04-29T00:03:24.891Z,8.90
2019-04-29T00:05:54.593Z,8.80
2019-04-29T00:08:24.279Z,8.70
2019-04-29T00:10:54.354Z,8.70
2019-04-29T00:13:24.143Z,8.80
2019-04-29T00:16:12.907Z,8.80
2019-04-29T00:19:02.195Z,8.80
2019-04-29T00:21:31.940Z,8.70
2019-04-29T00:24:04.071Z,8.70
2019-04-29T00:26:33.149Z,8.80
2019-04-29T00:29:02.739Z,8.70
2019-04-29T00:31:32.451Z,8.80
2019-04-29T00:34:02.144Z,8.80
2019-04-29T00:36:37.211Z,8.70
2019-04-29T00:39:32.389Z,8.60
2019-04-29T00:42:21.912Z,8.70
2019-04-29T00:44:51.570Z,8.70
2019-04-29T00:47:21.371Z,8.60
2019-04-29T00:49:51.008Z,8.60
2019-04-29T00:52:20.727Z,8.50
2019-04-29T00:54:55.880Z,8.30
2019-04-29T00:57:25.467Z,8.30
2019-04-29T00:59:55.159Z,8.40
2019-04-29T01:02:24.920Z,8.40
2019-04-29T01:04:55.600Z,8.30
2019-04-29T01:07:25.311Z,8.30
2019-04-29T01:09:55.080Z,8.30
2019-04-29T01:12:24.749Z,8.20
2019-04-29T01:14:54.490Z,8.10
2019-04-29T01:17:24.885Z,8.10
2019-04-29T01:19:54.427Z,8.00
2019-04-29T01:22:24.731Z,7.90
2019-04-29T01:24:54.396Z,7.90
2019-04-29T01:27:28.727Z,7.90
2019-04-29T01:29:58.510Z,8.00
2019-04-29T01:32:28.167Z,8.00
2019-04-29T01:34:57.863Z,8.00
2019-04-29T01:37:38.992Z,8.00
2019-04-29T01:40:27.645Z,7.90
2019-04-29T01:42:57.335Z,7.90
2019-04-29T01:45:27.011Z,7.80
2019-04-29T01:47:56.725Z,7.70
2019-04-29T01:50:26.520Z,7.70
2019-04-29T01:52:56.140Z,7.60
2019-04-29T01:55:25.847Z,7.60
2019-04-29T01:57:55.600Z,7.60
2019-04-29T02:00:25.283Z,7.60
2019-04-29T02:02:54.975Z,7.60
2019-04-29T02:05:24.773Z,7.70
2019-04-29T02:07:54.408Z,7.70
2019-04-29T02:10:29.915Z,7.70
2019-04-29T02:12:59.552Z,7.70
2019-04-29T02:15:29.354Z,7.70
2019-04-29T02:17:59.011Z,7.70
2019-04-29T02:20:28.690Z,7.80
2019-04-29T02:23:29.646Z,7.80
2019-04-29T02:25:59.208Z,7.80
2019-04-29T02:28:28.793Z,7.80
2019-04-29T02:31:00.745Z,7.80
2019-04-29T02:33:30.408Z,7.90
2019-04-29T02:36:00.133Z,7.70
2019-04-29T02:38:48.771Z,7.50
2019-04-29T02:41:36.828Z,7.40
2019-04-29T02:44:08.270Z,7.40
2019-04-29T02:46:37.904Z,7.30
2019-04-29T02:49:07.671Z,7.30
2019-04-29T02:51:46.801Z,7.40
2019-04-29T02:54:16.573Z,7.50
2019-04-29T02:56:49.105Z,7.50
2019-04-29T02:59:21.716Z,7.60
2019-04-29T03:01:59.391Z,7.60
2019-04-29T03:04:31.548Z,7.50
2019-04-29T03:07:01.178Z,7.30
2019-04-29T03:09:32.522Z,7.10
2019-04-29T03:12:02.360Z,7.00
2019-04-29T03:14:32.038Z,7.00
2019-04-29T03:17:01.648Z,7.00
2019-04-29T03:19:35.267Z,6.90
2019-04-29T03:22:08.915Z,7.00
2019-04-29T03:24:39.616Z,7.10
2019-04-29T03:27:10.310Z,7.10
2019-04-29T03:29:40.171Z,7.00
2019-04-29T03:32:09.998Z,7.00
2019-04-29T03:34:39.785Z,7.00
2019-04-29T03:37:09.382Z,7.00
2019-04-29T03:39:39.077Z,7.10
2019-04-29T03:42:08.773Z,7.10
2019-04-29T03:44:38.489Z,7.10
2019-04-29T03:47:08.233Z,7.20
2019-04-29T03:49:37.917Z,7.10
2019-04-29T03:52:07.623Z,7.20
2019-04-29T03:54:37.350Z,7.10
2019-04-29T03:57:07.980Z,7.20
2019-04-29T03:59:37.564Z,7.20
2019-04-29T04:02:18.379Z,7.30
2019-04-29T04:05:05.815Z,7.30
2019-04-29T04:07:56.625Z,7.30
2019-04-29T04:10:26.459Z,7.30
2019-04-29T04:12:56.226Z,7.20
2019-04-29T04:15:26.122Z,7.20
2019-04-29T04:18:17.516Z,7.20
2019-04-29T04:20:47.142Z,7.20
2019-04-29T04:23:16.832Z,7.30
2019-04-29T04:25:46.557Z,7.40
2019-04-29T04:28:16.278Z,7.40
2019-04-29T04:30:46.675Z,7.40
2019-04-29T04:33:16.311Z,7.40
2019-04-29T04:35:46.015Z,7.40
2019-04-29T04:38:15.781Z,7.50
2019-04-29T04:41:04.254Z,7.60
2019-04-29T04:43:33.867Z,7.50
2019-04-29T04:46:03.575Z,7.60
2019-04-29T04:48:33.126Z,7.60
2019-04-29T04:51:02.683Z,7.60
2019-04-29T04:53:32.913Z,7.60
2019-04-29T04:56:03.666Z,7.70
2019-04-29T04:58:33.265Z,7.70
2019-04-29T05:01:02.964Z,7.80
2019-04-29T05:03:32.691Z,7.80
2019-04-29T05:06:02.456Z,7.80
2019-04-29T05:08:32.091Z,7.80
2019-04-29T05:11:01.873Z,7.80
2019-04-29T05:13:32.792Z,7.80
2019-04-29T05:16:02.570Z,7.90
2019-04-29T05:18:32.221Z,7.80
2019-04-29T05:21:02.312Z,7.90
2019-04-29T05:23:32.036Z,7.80
2019-04-29T05:26:01.773Z,7.90
2019-04-29T05:28:31.411Z,8.00
2019-04-29T05:31:01.835Z,7.90
2019-04-29T05:33:31.449Z,7.90
2019-04-29T05:36:20.091Z,7.90
2019-04-29T05:39:00.235Z,8.00
2019-04-29T05:41:34.234Z,8.00
2019-04-29T05:44:10.327Z,8.20
2019-04-29T05:46:44.162Z,8.30
2019-04-29T05:49:16.447Z,8.40
2019-04-29T05:52:10.877Z,8.30
2019-04-29T05:54:41.315Z,8.40
2019-04-29T05:57:10.956Z,8.30
2019-04-29T05:59:43.407Z,8.30
2019-04-29T06:02:12.007Z,8.30
2019-04-29T06:04:41.723Z,8.30
2019-04-29T06:07:11.439Z,8.40
2019-04-29T06:09:41.131Z,8.50
2019-04-29T06:12:10.836Z,8.60
2019-04-29T06:14:40.566Z,8.50
2019-04-29T06:17:10.295Z,8.50
2019-04-29T06:19:41.081Z,8.60
2019-04-29T06:22:10.740Z,8.60
2019-04-29T06:24:41.164Z,8.60
2019-04-29T06:27:11.955Z,8.60
2019-04-29T06:29:41.692Z,8.70
2019-04-29T06:32:11.415Z,8.80
2019-04-29T06:34:41.780Z,8.80
2019-04-29T06:37:11.436Z,8.80
2019-04-29T06:39:41.131Z,8.60
2019-04-29T06:42:10.855Z,8.60
2019-04-29T06:44:40.492Z,8.50
2019-04-29T06:47:10.144Z,8.40
2019-04-29T06:49:39.860Z,8.50
2019-04-29T06:52:09.610Z,8.40
2019-04-29T06:54:39.295Z,8.40
2019-04-29T06:57:08.996Z,8.40
2019-04-29T06:59:38.733Z,8.50
2019-04-29T07:02:09.358Z,8.50
2019-04-29T07:04:39.773Z,8.60
2019-04-29T07:07:09.483Z,8.60
2019-04-29T07:09:39.196Z,8.60
2019-04-29T07:12:12.614Z,8.50
2019-04-29T07:14:40.257Z,8.60
2019-04-29T07:17:09.957Z,8.70
2019-04-29T07:19:39.666Z,8.70
2019-04-29T07:22:10.439Z,8.80
2019-04-29T07:24:40.116Z,8.90
2019-04-29T07:27:09.807Z,8.70
2019-04-29T07:29:39.555Z,8.70
2019-04-29T07:32:09.763Z,8.50
2019-04-29T07:34:40.380Z,8.40
2019-04-29T07:37:10.172Z,8.40
2019-04-29T07:39:39.787Z,8.40
2019-04-29T07:42:09.515Z,8.60
2019-04-29T07:45:00.924Z,8.60
2019-04-29T07:47:31.169Z,8.70
2019-04-29T07:50:00.960Z,8.80
2019-04-29T07:52:30.750Z,8.90
2019-04-29T07:55:00.393Z,8.90
2019-04-29T07:57:30.132Z,8.90
2019-04-29T08:00:00.748Z,9.00
2019-04-29T08:02:30.334Z,9.00
2019-04-29T08:05:00.036Z,9.10
2019-04-29T08:07:30.338Z,9.10
2019-04-29T08:10:00.186Z,9.20
2019-04-29T08:12:32.980Z,9.10
2019-04-29T08:15:07.745Z,9.00
2019-04-29T08:17:35.592Z,8.90
2019-04-29T08:20:06.460Z,8.90
2019-04-29T08:22:36.264Z,8.90
2019-04-29T08:25:06.459Z,9.00
2019-04-29T08:27:40.543Z,9.00
2019-04-29T08:30:11.520Z,9.10
2019-04-29T08:32:39.004Z,9.10
2019-04-29T08:35:09.343Z,9.10
2019-04-29T08:37:39.066Z,9.10
2019-04-29T08:40:16.329Z,9.20
2019-04-29T08:42:46.762Z,9.20
2019-04-29T08:45:26.898Z,9.20
2019-04-29T08:47:56.584Z,9.30
2019-04-29T08:50:26.279Z,9.30
2019-04-29T08:52:55.962Z,9.30
2019-04-29T08:55:26.615Z,9.40
2019-04-29T08:57:57.071Z,9.40
2019-04-29T09:00:26.780Z,9.40
2019-04-29T09:02:56.476Z,9.30
2019-04-29T09:05:26.170Z,9.30
2019-04-29T09:07:57.411Z,9.30
2019-04-29T09:10:27.248Z,9.30
2019-04-29T09:12:56.924Z,9.30
2019-04-29T09:15:26.632Z,9.30
2019-04-29T09:17:56.371Z,9.30
2019-04-29T09:20:26.077Z,9.30
2019-04-29T09:23:00.398Z,9.30
2019-04-29T09:25:46.260Z,9.30
2019-04-29T09:28:18.253Z,9.40
2019-04-29T09:30:47.953Z,9.50
2019-04-29T09:33:17.544Z,9.50
2019-04-29T09:35:47.324Z,9.60
2019-04-29T09:38:17.639Z,9.60
2019-04-29T09:40:54.411Z,9.70
2019-04-29T09:43:46.277Z,9.70
2019-04-29T09:46:23.659Z,9.70
2019-04-29T09:48:53.706Z,9.80
2019-04-29T09:51:32.247Z,9.80
2019-04-29T09:54:01.931Z,9.90
2019-04-29T09:56:34.553Z,10.00
2019-04-29T09:59:20.875Z,10.00
2019-04-29T10:01:57.774Z,10.10
2019-04-29T10:04:56.733Z,10.10
2019-04-29T10:07:22.307Z,10.10
2019-04-29T10:09:57.298Z,10.20
2019-04-29T10:12:23.196Z,10.20
2019-04-29T10:14:52.891Z,10.20
2019-04-29T10:17:50.958Z,10.30
2019-04-29T10:20:30.329Z,10.30
2019-04-29T10:23:00.115Z,10.30
2019-04-29T10:25:29.795Z,10.40
2019-04-29T10:27:59.393Z,10.40
2019-04-29T10:30:31.248Z,10.40
2019-04-29T10:33:02.088Z,10.50
2019-04-29T10:35:31.865Z,10.50
2019-04-29T10:38:02.794Z,10.50
2019-04-29T10:40:46.079Z,10.50
2019-04-29T10:43:36.083Z,10.40
2019-04-29T10:46:39.891Z,10.40
2019-04-29T10:49:19.431Z,10.40
2019-04-29T10:51:49.164Z,10.40
2019-04-29T10:54:18.962Z,10.50
2019-04-29T10:56:49.972Z,10.50
2019-04-29T10:59:19.596Z,10.50
2019-04-29T11:02:34.055Z,10.60
2019-04-29T11:05:27.889Z,10.50
2019-04-29T11:08:03.997Z,10.60
2019-04-29T11:10:33.610Z,10.70
2019-04-29T11:13:03.339Z,10.70
2019-04-29T11:15:35.958Z,10.70
2019-04-29T11:18:06.607Z,10.80
2019-04-29T11:20:36.751Z,10.90
2019-04-29T11:23:19.358Z,10.90
2019-04-29T11:26:13.407Z,10.90
2019-04-29T11:28:46.914Z,10.90
2019-04-29T11:31:19.041Z,10.80
2019-04-29T11:34:05.374Z,10.80
2019-04-29T11:36:34.981Z,10.70
2019-04-29T11:39:09.022Z,10.70
2019-04-29T11:41:38.557Z,10.70
2019-04-29T11:44:08.223Z,10.60
2019-04-29T11:46:37.967Z,10.60
2019-04-29T11:49:07.960Z,10.60
2019-04-29T11:51:57.012Z,10.60
2019-04-29T11:54:12.390Z,10.50
2019-04-29T11:56:42.314Z,10.50
2019-04-29T11:59:29.876Z,10.50
2019-04-29T12:02:17.055Z,10.40
2019-04-29T12:04:53.696Z,10.40
2019-04-29T12:07:32.115Z,10.40
2019-04-29T12:09:54.900Z,10.40
2019-04-29T12:12:24.603Z,10.40
2019-04-29T12:15:31.523Z,10.50
2019-04-29T12:18:18.478Z,10.50
2019-04-29T12:21:06.989Z,10.60
2019-04-29T12:23:36.702Z,10.70
2019-04-29T12:26:06.884Z,10.60
2019-04-29T12:28:38.055Z,10.70
2019-04-29T12:31:19.213Z,10.70
2019-04-29T12:33:54.564Z,10.80
2019-04-29T12:36:24.230Z,10.90
2019-04-29T12:39:42.662Z,10.80
2019-04-29T12:42:28.016Z,10.80
2019-04-29T12:45:19.256Z,10.70
2019-04-29T12:47:43.207Z,10.60
2019-04-29T12:50:12.878Z,10.50
2019-04-29T12:52:42.512Z,10.40
2019-04-29T12:55:20.153Z,10.30
2019-04-29T12:57:45.187Z,10.30
2019-04-29T13:00:20.757Z,10.30
2019-04-29T13:03:12.767Z,10.30
2019-04-29T13:05:58.267Z,10.30
2019-04-29T13:08:31.201Z,10.20
2019-04-29T13:11:02.888Z,10.30
2019-04-29T13:13:32.579Z,10.30
2019-04-29T13:16:22.049Z,10.30
2019-04-29T13:19:19.927Z,10.30
2019-04-29T13:21:45.076Z,10.30
2019-04-29T13:24:23.363Z,10.30
2019-04-29T13:26:46.100Z,10.20
2019-04-29T13:29:26.950Z,10.20
2019-04-29T13:31:47.155Z,10.20
2019-04-29T13:34:24.606Z,10.20
2019-04-29T13:37:06.461Z,10.20
2019-04-29T13:39:39.080Z,10.20
2019-04-29T13:41:58.246Z,10.20
2019-04-29T13:44:27.837Z,10.30
2019-04-29T13:47:15.342Z,10.30
2019-04-29T13:50:17.993Z,10.30
2019-04-29T13:52:40.055Z,10.30
2019-04-29T13:55:17.001Z,10.40
2019-04-29T13:57:40.991Z,10.50
2019-04-29T14:00:31.638Z,10.50
2019-04-29T14:03:11.613Z,10.50
2019-04-29T14:05:41.707Z,10.60
2019-04-29T14:08:11.355Z,10.60
2019-04-29T14:10:41.096Z,10.60
2019-04-29T14:13:16.289Z,10.60
2019-04-29T14:15:42.234Z,10.60
2019-04-29T14:18:12.269Z,10.60
2019-04-29T14:20:47.385Z,10.60
2019-04-29T14:23:14.568Z,10.60
2019-04-29T14:25:44.308Z,10.70
2019-04-29T14:28:13.975Z,10.90
2019-04-29T14:30:47.622Z,10.90
2019-04-29T14:33:19.237Z,10.80
2019-04-29T14:36:01.045Z,10.70
2019-04-29T14:38:30.603Z,10.50
2019-04-29T14:41:00.310Z,10.40
2019-04-29T14:43:50.679Z,10.30
2019-04-29T14:46:40.767Z,10.20
2019-04-29T14:49:14.608Z,10.10
2019-04-29T14:51:44.228Z,10.10
2019-04-29T14:54:13.942Z,10.10
2019-04-29T14:56:43.710Z,10.10
2019-04-29T14:59:13.588Z,10.10
2019-04-29T15:01:54.423Z,10.00
2019-04-29T15:04:26.698Z,10.00
2019-04-29T15:06:56.354Z,10.00
2019-04-29T15:09:26.063Z,10.00
2019-04-29T15:12:00.903Z,9.80
2019-04-29T15:14:58.947Z,9.80
2019-04-29T15:17:34.489Z,9.70
2019-04-29T15:20:12.450Z,9.70
2019-04-29T15:22:42.220Z,9.70
2019-04-29T15:25:11.886Z,9.70
2019-04-29T15:27:41.521Z,9.70
2019-04-29T15:30:12.499Z,9.70
2019-04-29T15:32:42.155Z,9.70
2019-04-29T15:35:11.828Z,9.70
2019-04-29T15:37:41.587Z,9.80
2019-04-29T15:40:12.133Z,9.80
2019-04-29T15:42:43.252Z,9.70
2019-04-29T15:45:13.247Z,9.70
2019-04-29T15:47:45.715Z,9.50
2019-04-29T15:50:18.473Z,9.50
2019-04-29T15:52:46.605Z,9.40
2019-04-29T15:55:16.307Z,9.40
2019-04-29T15:57:50.153Z,9.40
2019-04-29T16:02:48.840Z,9.50
2019-04-29T16:05:27.428Z,9.60
2019-04-29T16:08:22.133Z,9.50
2019-04-29T16:11:13.405Z,9.50
2019-04-29T16:13:48.004Z,9.60
2019-04-29T16:16:14.492Z,9.50
2019-04-29T16:18:44.202Z,9.60
2019-04-29T16:21:14.025Z,9.60
2019-04-29T16:23:45.144Z,9.50
2019-04-29T16:26:14.788Z,9.50
2019-04-29T16:28:44.531Z,9.50
2019-04-29T16:31:14.455Z,9.50
2019-04-29T16:33:47.455Z,9.50
2019-04-29T16:36:16.485Z,9.50
2019-04-29T16:38:46.292Z,9.50
2019-04-29T16:41:35.391Z,9.50
2019-04-29T16:44:06.780Z,9.60
2019-04-29T16:46:37.920Z,9.60
2019-04-29T16:49:07.885Z,9.60
2019-04-29T16:51:37.568Z,9.60
2019-04-29T16:54:07.359Z,9.60
2019-04-29T16:56:37.167Z,9.50
2019-04-29T16:59:09.503Z,9.50
2019-04-29T17:01:41.448Z,9.40
2019-04-29T17:04:13.293Z,9.40
2019-04-29T17:06:59.595Z,9.40
2019-04-29T17:09:29.233Z,9.30
2019-04-29T17:12:00.120Z,9.30
2019-04-29T17:14:29.823Z,9.30
2019-04-29T17:16:59.511Z,9.30
2019-04-29T17:19:29.255Z,9.30
2019-04-29T17:22:24.365Z,9.30
2019-04-29T17:24:31.299Z,9.30
2019-04-29T17:27:35.101Z,9.30
2019-04-29T17:30:20.351Z,9.30
2019-04-29T17:32:57.806Z,9.30
2019-04-29T17:35:15.455Z,9.50
2019-04-29T17:35:29.793Z,9.30
2019-04-29T17:38:03.037Z,9.20
2019-04-29T17:40:33.187Z,9.20
2019-04-29T17:43:12.044Z,9.30
2019-04-29T17:46:00.883Z,9.20
2019-04-29T17:48:58.694Z,9.20
2019-04-29T17:51:29.447Z,9.20
2019-04-29T17:54:01.764Z,9.20
2019-04-29T17:56:50.281Z,9.20
2019-04-29T17:59:45.817Z,9.20
2019-04-29T18:02:36.138Z,9.20
2019-04-29T18:05:16.902Z,9.10
2019-04-29T18:07:55.271Z,9.10
2019-04-29T18:10:36.748Z,9.10
2019-04-29T18:13:06.594Z,9.10
2019-04-29T18:15:58.583Z,9.10
2019-04-29T18:18:18.071Z,9.10
2019-04-29T18:21:06.602Z,9.10
2019-04-29T18:23:56.800Z,9.10
2019-04-29T18:26:30.551Z,9.10
2019-04-29T18:29:03.599Z,9.20
2019-04-29T18:31:32.691Z,9.30
2019-04-29T18:34:02.479Z,9.30
2019-04-29T18:36:37.967Z,9.20
2019-04-29T18:39:13.178Z,9.20
2019-04-29T18:41:44.819Z,9.10
2019-04-29T18:44:19.214Z,9.10
2019-04-29T18:46:53.255Z,9.20
2019-04-29T18:49:17.328Z,9.20
2019-04-29T18:51:47.015Z,9.10
2019-04-29T18:54:16.749Z,9.10
2019-04-29T18:56:46.351Z,9.10
2019-04-29T18:59:20.992Z,9.00
2019-04-29T19:01:47.381Z,9.00
2019-04-29T19:04:29.089Z,9.00
2019-04-29T19:07:02.456Z,9.00
2019-04-29T19:09:35.950Z,9.10
2019-04-29T19:12:05.739Z,9.10
2019-04-29T19:14:35.565Z,9.10
2019-04-29T19:17:05.590Z,9.10
2019-04-29T19:19:39.353Z,9.10
2019-04-29T19:22:09.377Z,9.00
2019-04-29T19:24:38.989Z,9.10
2019-04-29T19:27:10.041Z,9.10
2019-04-29T19:29:43.173Z,9.00
2019-04-29T19:32:11.567Z,9.00
2019-04-29T19:34:58.241Z,9.10
2019-04-29T19:37:39.867Z,9.00
2019-04-29T19:40:17.713Z,8.90
2019-04-29T19:42:56.181Z,8.90
2019-04-29T19:45:35.203Z,8.90
2019-04-29T19:48:11.520Z,8.90
2019-04-29T19:50:41.251Z,8.90
2019-04-29T19:53:10.953Z,8.90
2019-04-29T19:55:42.164Z,8.80
2019-04-29T19:58:12.932Z,8.80
2019-04-29T20:00:43.677Z,8.80
2019-04-29T20:03:22.066Z,8.80
2019-04-29T20:05:49.590Z,8.80
2019-04-29T20:08:41.290Z,8.80
2019-04-29T20:10:52.434Z,8.80
2019-04-29T20:13:30.682Z,8.80
2019-04-29T20:16:17.919Z,8.70
2019-04-29T20:19:15.195Z,8.70
2019-04-29T20:21:37.957Z,8.80
2019-04-29T20:24:09.466Z,8.80
2019-04-29T20:26:39.146Z,8.80
2019-04-29T20:29:09.153Z,8.80
2019-04-29T20:31:48.616Z,8.80
2019-04-29T20:34:12.176Z,8.80
2019-04-29T20:36:43.120Z,8.70
2019-04-29T20:39:18.321Z,8.70
2019-04-29T20:41:48.752Z,8.80
2019-04-29T20:44:16.628Z,8.80
2019-04-29T20:47:12.736Z,8.80
2019-04-29T20:49:17.757Z,8.70
2019-04-29T20:51:52.214Z,8.70
2019-04-29T20:54:25.285Z,8.70
2019-04-29T20:57:03.008Z,8.60
2019-04-29T20:59:26.509Z,8.70
2019-04-29T21:02:11.309Z,8.70
2019-04-29T21:04:38.470Z,8.70
2019-04-29T21:07:02.836Z,8.70
2019-04-29T21:09:38.306Z,8.70
2019-04-29T21:13:09.144Z,8.90
2019-04-29T21:15:52.104Z,9.10
2019-04-29T21:18:18.533Z,9.20
2019-04-29T21:20:48.231Z,9.30
2019-04-29T21:23:18.155Z,9.30
2019-04-29T21:25:47.888Z,9.10
2019-04-29T21:28:17.895Z,9.00
2019-04-29T21:30:47.509Z,8.90
2019-04-29T21:33:21.222Z,8.90
2019-04-29T21:35:57.920Z,8.70
2019-04-29T21:39:06.089Z,8.70
2019-04-29T21:41:43.155Z,8.60
2019-04-29T21:44:12.803Z,8.60
2019-04-29T21:47:04.742Z,8.60
2019-04-29T21:49:43.315Z,8.50
2019-04-29T21:52:05.727Z,8.50
2019-04-29T21:54:35.483Z,8.50
2019-04-29T21:57:05.785Z,8.50
2019-04-29T21:59:35.789Z,8.50
2019-04-29T22:02:06.692Z,8.50
2019-04-29T22:04:38.486Z,8.50
2019-04-29T22:07:09.366Z,8.50
2019-04-29T22:09:40.537Z,8.60
2019-04-29T22:12:14.224Z,8.50
2019-04-29T22:14:45.082Z,8.50
2019-04-29T22:17:14.940Z,8.50
2019-04-29T22:19:47.954Z,8.50
2019-04-29T22:22:17.515Z,8.50
2019-04-29T22:24:47.240Z,8.50
2019-04-29T22:27:17.035Z,8.50
2019-04-29T22:29:47.541Z,8.40
2019-04-29T22:32:22.408Z,8.40
2019-04-29T22:34:54.456Z,8.40
2019-04-29T22:37:25.389Z,8.40
2019-04-29T22:39:58.652Z,8.30
2019-04-29T22:42:40.604Z,8.30
2019-04-29T22:45:10.439Z,8.30
2019-04-29T22:47:39.974Z,8.30
2019-04-29T22:50:10.179Z,8.30
2019-04-29T22:52:39.885Z,8.30
2019-04-29T22:55:09.837Z,8.20
2019-04-29T22:57:39.532Z,8.20
2019-04-29T23:00:09.662Z,8.20
2019-04-29T23:02:39.302Z,8.20
2019-04-29T23:05:09.122Z,8.10
2019-04-29T23:07:38.783Z,8.00
2019-04-29T23:10:08.756Z,8.10
2019-04-29T23:12:38.546Z,8.10
2019-04-29T23:15:08.799Z,8.00
2019-04-29T23:17:38.383Z,8.00
2019-04-29T23:20:28.855Z,8.00
2019-04-29T23:23:05.264Z,8.00
2019-04-29T23:25:39.871Z,8.00
2019-04-29T23:28:09.603Z,7.90
2019-04-29T23:30:39.335Z,7.90
2019-04-29T23:33:09.044Z,7.90
2019-04-29T23:35:39.789Z,7.90
2019-04-29T23:38:09.852Z,8.00
2019-04-29T23:40:39.614Z,8.00
2019-04-29T23:43:09.314Z,8.10
2019-04-29T23:45:38.979Z,8.00
2019-04-29T23:48:08.581Z,7.90
2019-04-29T23:50:38.296Z,7.90
2019-04-29T23:53:07.923Z,7.90
2019-04-29T23:55:37.659Z,7.90
2019-04-29T23:58:32.540Z,7.90
